createdAt,value
2019-03-06T06:49:18.867Z,12.77
2019-03-06T06:52:25.374Z,14.43
2019-03-06T06:55:17.585Z,12.63
2019-03-06T06:58:41.944Z,12.37
2019-03-06T07:01:49.768Z,13.13
2019-03-06T07:05:23.668Z,11.90
2019-03-06T07:08:05.026Z,11.80
2019-03-06T07:10:51.893Z,13.97
2019-03-06T07:13:40.154Z,13.90
2019-03-06T07:16:29.013Z,11.37
2019-03-06T07:19:32.224Z,10.13
2019-03-06T07:22:35.922Z,12.40
2019-03-06T07:25:15.826Z,9.83
2019-03-06T07:28:10.168Z,10.60
2019-03-06T07:30:58.616Z,10.80
2019-03-06T07:33:45.553Z,10.17
2019-03-06T07:36:40.017Z,11.87
2019-03-06T07:39:23.343Z,13.03
2019-03-06T07:42:01.820Z,10.63
2019-03-06T07:44:49.015Z,12.43
2019-03-06T07:47:40.347Z,13.87
2019-03-06T07:50:48.190Z,9.63
2019-03-06T07:54:11.355Z,10.80
2019-03-06T07:56:44.770Z,11.13
2019-03-06T07:59:14.076Z,12.93
2019-03-06T08:01:58.478Z,9.83
2019-03-06T08:04:27.796Z,11.80
2019-03-06T08:07:16.170Z,9.87
2019-03-06T08:09:45.592Z,10.97
2019-03-06T08:12:39.119Z,11.30
2019-03-06T08:15:25.887Z,11.17
2019-03-06T08:18:03.586Z,10.10
2019-03-06T08:20:54.815Z,14.03
2019-03-06T08:23:46.357Z,11.73
2019-03-06T08:26:15.898Z,11.23
2019-03-06T08:28:45.260Z,11.80
2019-03-06T08:31:36.701Z,9.43
2019-03-06T08:34:06.160Z,9.50
2019-03-06T08:36:35.523Z,9.80
2019-03-06T08:39:15.062Z,9.60
2019-03-06T08:41:44.434Z,10.23
2019-03-06T08:44:13.769Z,10.10
2019-03-06T08:46:50.453Z,10.93
2019-03-06T08:49:41.617Z,9.07
2019-03-06T08:52:32.872Z,9.37
2019-03-06T08:55:20.112Z,9.43
2019-03-06T08:58:17.435Z,9.00
2019-03-06T09:01:06.963Z,8.53
2019-03-06T09:03:46.735Z,10.23
2019-03-06T09:06:21.982Z,8.47
2019-03-06T09:09:02.297Z,10.40
2019-03-06T09:11:56.995Z,8.40
2019-03-06T09:14:51.504Z,11.17
2019-03-06T09:17:36.356Z,8.67
2019-03-06T09:20:41.171Z,8.60
2019-03-06T09:23:56.543Z,10.97
2019-03-06T09:26:53.959Z,8.73
2019-03-06T09:29:34.964Z,8.80
2019-03-06T09:32:16.405Z,9.40
2019-03-06T09:35:03.634Z,8.87
2019-03-06T09:37:54.712Z,8.18
2019-03-06T09:40:55.066Z,9.87
2019-03-06T09:43:44.193Z,7.60
2019-03-06T09:46:35.607Z,6.03
2019-03-06T09:49:25.885Z,7.97
2019-03-06T09:52:12.598Z,6.57
2019-03-06T09:54:50.676Z,6.13
2019-03-06T09:57:33.935Z,5.90
2019-03-06T10:00:28.341Z,7.07
2019-03-06T10:03:18.589Z,6.43
2019-03-06T10:06:10.122Z,6.83
2019-03-06T10:08:49.602Z,8.70
2019-03-06T10:11:37.761Z,6.93
2019-03-06T10:14:14.599Z,8.73
2019-03-06T10:17:02.985Z,9.33
2019-03-06T10:32:15.555Z,5.33
2019-03-06T10:34:44.881Z,4.97
2019-03-06T10:37:14.253Z,6.47
2019-03-06T10:39:43.912Z,6.67
2019-03-06T10:42:13.308Z,5.03
2019-03-06T10:44:42.950Z,8.77
2019-03-06T10:47:12.373Z,4.30
2019-03-06T10:49:41.743Z,6.13
2019-03-06T10:52:11.140Z,6.43
2019-03-06T10:54:44.599Z,7.03
2019-03-06T10:57:11.946Z,4.70
2019-03-06T10:59:41.663Z,7.77
2019-03-06T11:02:11.243Z,7.17
2019-03-06T11:04:48.253Z,6.37
2019-03-06T11:07:18.008Z,4.27
2019-03-06T11:09:47.468Z,5.57
2019-03-06T11:12:16.911Z,7.00
2019-03-06T11:14:46.488Z,5.67
2019-03-06T11:17:16.167Z,5.13
2019-03-06T11:19:45.740Z,5.00
2019-03-06T12:43:32.911Z,4.20
2019-03-06T12:46:30.883Z,6.73
2019-03-06T12:49:49.869Z,4.07
2019-03-06T12:52:43.183Z,5.40
2019-03-06T13:02:42.347Z,6.60
2019-03-06T13:05:22.826Z,4.60
2019-03-06T13:08:05.287Z,3.97
2019-03-06T13:11:03.857Z,5.63
2019-03-06T13:13:45.991Z,4.57
2019-03-06T13:16:31.618Z,5.87
2019-03-06T13:19:20.914Z,5.30
2019-03-06T13:21:45.688Z,3.93
2019-03-06T13:24:25.683Z,4.27
2019-03-06T13:27:06.922Z,5.83
2019-03-06T13:29:55.990Z,3.70
2019-03-06T13:32:53.602Z,9.00
2019-03-06T13:35:45.420Z,4.53
2019-03-06T13:48:32.883Z,4.07
2019-03-06T13:51:38.903Z,6.87
2019-03-06T13:54:36.819Z,4.03
2019-03-06T13:57:27.811Z,4.80
2019-03-06T14:00:50.712Z,4.67
2019-03-06T14:03:09.201Z,4.87
2019-03-06T14:05:55.262Z,3.37
2019-03-06T14:08:40.522Z,4.50
2019-03-06T14:11:29.419Z,4.30
2019-03-06T14:14:19.720Z,3.90
